K40 weather

Anvik Seaplane Base
Anvik, Alaska, United States

Public forecast

Using degrees Fahrenheit for public forecast. Weather courtesy of forecast.io.

METAR (pilot weather report)

Closest report is Anvik Airport, 0.7 nm (1.3 km) SE. Retrieved 2019/05/24 09:56 UTC (51 minutes ago):

PANV 240956Z AUTO 25006KT 10SM BKN070 07/05 A3011 RMK AO2 SLP277 T00670050 TSNO

TAF (pilot weather forecast)

Closest forecast is Unalakleet Airport, 75.7 nm (140.2 km) NNW. Retrieved 2019/05/24 06:24 UTC (4 hours ago):

TAF PAUN 240521Z 2406/2506 21010KT P6SM VCSH SCT025 BKN035 OVC050